createdAt,value
2023-01-13T00:02:51.649Z,99933.59
2023-01-13T00:05:58.713Z,99947.66
2023-01-13T00:09:03.600Z,99935.66
2023-01-13T00:12:08.285Z,99940.06
2023-01-13T00:15:13.441Z,99943.22
2023-01-13T00:18:17.603Z,99943.84
2023-01-13T00:21:23.852Z,99944.47
2023-01-13T00:24:28.425Z,99937.63
2023-01-13T00:27:33.791Z,99925.31
2023-01-13T00:30:38.498Z,99933.94
2023-01-13T00:33:43.372Z,99939.34
2023-01-13T00:36:47.733Z,99946.44
2023-01-13T00:39:52.695Z,99927.22
2023-01-13T00:43:15.370Z,99924.59
2023-01-13T00:46:21.808Z,99931.34
2023-01-13T00:49:26.326Z,99933.78
2023-01-13T00:52:33.577Z,99929.03
2023-01-13T00:55:37.986Z,99926.00
2023-01-13T00:58:46.007Z,99933.00
2023-01-13T01:01:50.708Z,99929.88
2023-01-13T01:04:54.839Z,99935.94
2023-01-13T01:07:59.030Z,99937.72
2023-01-13T01:11:10.580Z,99935.28
2023-01-13T01:14:15.139Z,99934.50
2023-01-13T01:17:19.583Z,99928.59
2023-01-13T01:20:24.166Z,99922.38
2023-01-13T01:23:30.137Z,99934.31
2023-01-13T01:26:34.468Z,99936.09
2023-01-13T01:29:38.610Z,99947.41
2023-01-13T01:32:42.800Z,99936.94
2023-01-13T01:35:47.947Z,99948.13
2023-01-13T01:38:52.557Z,99945.38
2023-01-13T01:42:15.734Z,99954.78
2023-01-13T01:45:24.501Z,99950.47
2023-01-13T01:48:35.065Z,99951.47
2023-01-13T01:51:56.017Z,99970.13
2023-01-13T01:55:10.635Z,99951.34
2023-01-13T01:58:27.163Z,99950.88
2023-01-13T02:01:34.223Z,99941.22
2023-01-13T02:04:42.981Z,99936.28
2023-01-13T02:07:51.519Z,99934.03
2023-01-13T02:10:56.163Z,99917.34
2023-01-13T02:14:00.437Z,99906.03
2023-01-13T02:17:30.838Z,99905.38
2023-01-13T02:21:16.614Z,99890.53
2023-01-13T02:25:21.080Z,99875.09
2023-01-13T02:29:06.695Z,99874.00
2023-01-13T02:32:29.990Z,99870.44
2023-01-13T02:35:49.462Z,99874.00
2023-01-13T02:40:12.846Z,99850.97
2023-01-13T02:43:57.485Z,99852.03
2023-01-13T02:47:25.298Z,99839.25
2023-01-13T02:50:39.445Z,99828.25
2023-01-13T02:53:52.247Z,99811.06
2023-01-13T02:57:00.760Z,99799.94
2023-01-13T03:00:07.927Z,99782.06
2023-01-13T03:03:12.464Z,99782.81
2023-01-13T03:06:16.896Z,99764.84
2023-01-13T03:09:33.083Z,99749.34
2023-01-13T03:13:14.433Z,99743.44
2023-01-13T03:16:43.440Z,99746.28
2023-01-13T03:20:19.154Z,99744.72
2023-01-13T03:23:33.252Z,99741.34
2023-01-13T03:26:51.843Z,99738.81
2023-01-13T03:30:24.381Z,99736.34
2023-01-13T03:33:55.595Z,99727.94
2023-01-13T03:37:05.788Z,99724.53
2023-01-13T03:40:22.252Z,99723.53
2023-01-13T03:43:59.823Z,99707.94
2023-01-13T03:47:30.181Z,99715.34
2023-01-13T03:50:47.534Z,99720.50
2023-01-13T03:54:05.109Z,99709.09
2023-01-13T03:57:13.908Z,99707.38
2023-01-13T04:00:23.222Z,99704.16
2023-01-13T04:03:42.311Z,99700.59
2023-01-13T04:07:42.383Z,99688.50
2023-01-13T04:11:11.959Z,99684.41
2023-01-13T04:14:19.871Z,99680.03
2023-01-13T04:17:24.695Z,99681.56
2023-01-13T04:20:29.109Z,99677.88
2023-01-13T04:23:34.002Z,99674.50
2023-01-13T04:26:38.269Z,99662.47
2023-01-13T04:29:42.684Z,99668.59
2023-01-13T04:32:47.275Z,99664.38
2023-01-13T04:35:52.755Z,99668.25
2023-01-13T04:38:56.895Z,99661.41
2023-01-13T04:42:02.495Z,99661.69
2023-01-13T04:45:10.175Z,99659.81
2023-01-13T04:48:14.601Z,99657.22
2023-01-13T04:51:19.224Z,99645.84
2023-01-13T04:54:23.662Z,99642.47
2023-01-13T04:57:28.647Z,99643.16
2023-01-13T05:00:33.414Z,99639.53
2023-01-13T05:03:37.896Z,99647.38
2023-01-13T05:06:42.597Z,99637.84
2023-01-13T05:09:47.438Z,99634.41
2023-01-13T05:13:10.556Z,99631.88
2023-01-13T05:16:40.286Z,99627.75
2023-01-13T05:20:22.850Z,99633.91
2023-01-13T05:23:47.895Z,99631.44
2023-01-13T05:26:55.450Z,99632.19
2023-01-13T05:30:04.652Z,99640.97
2023-01-13T05:33:18.181Z,99632.13
2023-01-13T05:36:29.174Z,99638.13
2023-01-13T05:39:52.591Z,99654.09
2023-01-13T05:43:20.187Z,99657.53
2023-01-13T05:46:24.796Z,99657.44
2023-01-13T05:49:29.308Z,99658.28
2023-01-13T05:52:33.845Z,99660.91
2023-01-13T05:55:40.997Z,99666.91
2023-01-13T05:58:46.065Z,99661.69
2023-01-13T06:01:50.754Z,99658.13
2023-01-13T06:04:56.342Z,99652.22
2023-01-13T06:08:03.230Z,99648.44
2023-01-13T06:11:08.006Z,99656.19
2023-01-13T06:14:12.422Z,99648.22
2023-01-13T06:17:17.084Z,99656.91
2023-01-13T06:20:27.267Z,99652.44
2023-01-13T06:23:35.038Z,99644.53
2023-01-13T06:26:41.394Z,99647.22
2023-01-13T06:29:45.839Z,99636.63
2023-01-13T06:32:54.701Z,99627.41
2023-01-13T06:36:06.021Z,99629.69
2023-01-13T06:39:16.114Z,99621.78
2023-01-13T06:42:41.865Z,99613.22
2023-01-13T06:45:56.534Z,99615.75
2023-01-13T06:49:26.920Z,99613.72
2023-01-13T06:52:46.443Z,99607.66
2023-01-13T06:56:22.658Z,99605.81
2023-01-13T06:59:40.678Z,99604.03
2023-01-13T07:03:14.137Z,99601.25
2023-01-13T07:06:28.651Z,99592.34
2023-01-13T14:00:11.407Z,99729.03
2023-01-13T14:07:26.542Z,99753.69
2023-01-13T14:10:40.226Z,99757.94
2023-01-13T14:13:47.391Z,99762.13
2023-01-13T14:16:56.116Z,99766.97
2023-01-13T14:20:05.861Z,99769.78
2023-01-13T14:23:40.093Z,99770.66
2023-01-13T14:27:24.718Z,99772.31
2023-01-13T14:30:35.667Z,99774.78
2023-01-13T14:34:32.126Z,99790.75
2023-01-13T14:37:56.627Z,99784.13
2023-01-13T14:41:41.555Z,99788.38
2023-01-13T14:45:02.673Z,99784.44
2023-01-13T14:48:27.112Z,99797.41
2023-01-13T14:51:50.474Z,99787.13
2023-01-13T14:55:36.699Z,99793.06
2023-01-13T14:59:44.633Z,99793.06
2023-01-13T15:03:53.128Z,99775.69
2023-01-13T15:12:18.285Z,99767.94
2023-01-13T15:15:37.613Z,99769.72
2023-01-13T15:26:44.846Z,99773.91
2023-01-13T16:17:15.139Z,99868.25
2023-01-13T16:20:36.711Z,99869.16
2023-01-13T16:24:00.882Z,99865.50
2023-01-13T16:28:11.781Z,99860.34
2023-01-13T16:37:17.667Z,99847.25
2023-01-13T16:57:28.681Z,99894.22
2023-01-13T17:01:25.870Z,99892.81
2023-01-13T17:04:39.153Z,99909.09
2023-01-13T17:11:48.131Z,99928.84
2023-01-13T17:24:58.831Z,99981.44
2023-01-13T17:32:56.684Z,100016.25
2023-01-13T17:40:41.120Z,100050.09
2023-01-13T17:44:11.545Z,100051.22
2023-01-13T17:48:20.892Z,100070.25
2023-01-13T17:59:41.315Z,100083.50
2023-01-13T18:03:01.749Z,100099.16
2023-01-13T18:06:29.323Z,100099.84
2023-01-13T18:13:45.913Z,100112.91
2023-01-13T18:17:21.030Z,100111.34
2023-01-13T18:20:53.904Z,100113.03
2023-01-13T18:24:19.021Z,100112.25
2023-01-13T18:27:38.872Z,100119.31
2023-01-13T18:31:12.834Z,100110.56
2023-01-13T18:34:23.398Z,100106.22
2023-01-13T18:37:59.176Z,100112.13
2023-01-13T18:41:31.739Z,100107.69
2023-01-13T18:44:50.763Z,100111.88
2023-01-13T18:48:22.837Z,100101.38
2023-01-13T18:51:32.995Z,100112.50
2023-01-13T18:54:40.745Z,100107.22
2023-01-13T18:58:04.643Z,100110.78
2023-01-13T19:06:20.721Z,100134.16
2023-01-13T19:14:49.357Z,100127.97
2023-01-13T19:18:31.010Z,100121.81
2023-01-13T19:26:40.250Z,100126.06
2023-01-13T19:30:03.609Z,100129.22
2023-01-13T19:33:14.459Z,100127.41
2023-01-13T19:36:29.767Z,100126.28
2023-01-13T19:39:38.425Z,100130.25
2023-01-13T19:43:17.130Z,100136.59
2023-01-13T19:46:31.342Z,100143.09
2023-01-13T19:49:41.897Z,100136.28
2023-01-13T19:52:49.371Z,100137.88
2023-01-13T19:55:57.669Z,100138.78
2023-01-13T19:59:19.541Z,100146.47
2023-01-13T20:02:31.979Z,100141.09
2023-01-13T20:05:46.281Z,100162.25
2023-01-13T20:09:02.109Z,100160.59
2023-01-13T20:16:27.304Z,100165.66
2023-01-13T20:20:19.551Z,100167.06
2023-01-13T20:24:05.606Z,100165.09
2023-01-13T20:27:55.675Z,100172.28
2023-01-13T20:31:22.840Z,100184.56
2023-01-13T20:40:05.483Z,100198.41
2023-01-13T20:59:32.792Z,100242.25
2023-01-13T21:03:01.772Z,100255.38
2023-01-13T21:06:47.564Z,100258.06
2023-01-13T21:10:28.477Z,100271.56
2023-01-13T21:14:02.456Z,100280.06
2023-01-13T21:18:04.853Z,100286.13
2023-01-13T21:21:35.272Z,100299.16
2023-01-13T21:24:50.346Z,100302.75
2023-01-13T21:28:21.968Z,100312.59
2023-01-13T21:31:48.868Z,100315.97
2023-01-13T21:38:47.640Z,100332.25
2023-01-13T21:42:50.229Z,100331.25
2023-01-13T21:46:33.140Z,100327.03
2023-01-13T21:54:38.016Z,100338.81
2023-01-13T21:58:35.785Z,100351.09
2023-01-13T22:02:23.240Z,100349.38
2023-01-13T22:05:38.224Z,100354.78
2023-01-13T22:09:12.821Z,100367.09
2023-01-13T22:13:26.964Z,100371.41
2023-01-13T22:20:45.918Z,100380.44
2023-01-13T22:23:59.390Z,100379.59
2023-01-13T22:27:26.094Z,100388.81
2023-01-13T22:30:37.944Z,100390.63
2023-01-13T22:38:48.687Z,100425.28
2023-01-13T22:42:33.044Z,100419.16
2023-01-13T22:58:43.347Z,100442.94
2023-01-13T23:02:36.486Z,100454.28
